createdAt,value
2022-09-30T00:00:38.955Z,14.37
2022-09-30T00:01:41.972Z,14.27
2022-09-30T00:02:44.858Z,14.41
2022-09-30T00:03:49.264Z,14.35
2022-09-30T00:04:51.630Z,14.34
2022-09-30T00:06:07.952Z,14.66
2022-09-30T00:07:10.797Z,14.36
2022-09-30T00:08:12.963Z,14.32
2022-09-30T00:09:16.359Z,14.41
2022-09-30T00:10:18.854Z,14.34
2022-09-30T00:11:25.304Z,14.46
2022-09-30T00:12:27.480Z,14.23
2022-09-30T00:13:31.527Z,14.43
2022-09-30T00:14:33.855Z,14.23
2022-09-30T00:15:36.029Z,14.17
2022-09-30T00:16:38.419Z,14.03
2022-09-30T00:17:40.631Z,14.10
2022-09-30T00:18:44.621Z,14.19
2022-09-30T00:19:47.566Z,14.01
2022-09-30T00:20:49.827Z,13.97
2022-09-30T00:21:52.027Z,13.99
2022-09-30T00:22:54.241Z,14.03
2022-09-30T00:23:57.252Z,14.10
2022-09-30T00:24:59.445Z,14.02
2022-09-30T00:26:05.241Z,14.20
2022-09-30T00:27:07.474Z,14.01
2022-09-30T00:28:09.657Z,13.98
2022-09-30T00:29:12.277Z,14.03
2022-09-30T00:30:14.792Z,14.04
2022-09-30T00:31:19.554Z,14.20
2022-09-30T00:32:21.863Z,13.97
2022-09-30T00:33:24.091Z,13.99
2022-09-30T00:34:26.303Z,14.00
2022-09-30T00:35:28.611Z,14.02
2022-09-30T00:36:30.798Z,13.94
2022-09-30T00:37:33.030Z,13.91
2022-09-30T00:38:35.190Z,13.87
2022-09-30T00:39:37.541Z,13.83
2022-09-30T00:40:43.520Z,13.81
2022-09-30T00:41:48.702Z,13.96
2022-09-30T00:42:51.068Z,13.79
2022-09-30T00:43:53.852Z,13.69
2022-09-30T00:45:05.099Z,13.94
2022-09-30T00:46:31.782Z,13.87
2022-09-30T00:47:34.070Z,13.68
2022-09-30T00:48:39.339Z,13.92
2022-09-30T00:49:41.593Z,13.70
2022-09-30T00:50:47.212Z,13.90
2022-09-30T00:51:54.343Z,13.85
2022-09-30T00:53:11.795Z,13.99
2022-09-30T00:54:20.137Z,13.87
2022-09-30T00:55:36.121Z,14.00
2022-09-30T00:56:46.817Z,13.89
2022-09-30T00:57:49.045Z,13.58
2022-09-30T00:59:00.989Z,13.86
2022-09-30T01:00:05.168Z,13.69
2022-09-30T01:01:07.582Z,13.61
2022-09-30T01:02:10.770Z,13.79
2022-09-30T01:03:13.088Z,13.70
2022-09-30T01:04:17.922Z,13.87
2022-09-30T01:05:20.294Z,13.77
2022-09-30T01:06:23.939Z,13.93
2022-09-30T01:07:26.137Z,13.73
2022-09-30T01:08:30.563Z,13.77
2022-09-30T01:09:38.299Z,14.06
2022-09-30T01:10:40.558Z,13.73
2022-09-30T01:11:42.796Z,13.74
2022-09-30T01:12:45.089Z,13.57
2022-09-30T01:13:50.493Z,13.70
2022-09-30T01:14:55.933Z,13.73
2022-09-30T01:16:12.999Z,13.80
2022-09-30T01:17:20.651Z,13.80
2022-09-30T01:18:50.755Z,13.97
2022-09-30T01:20:17.554Z,13.67
2022-09-30T01:21:47.247Z,13.74
2022-09-30T01:23:13.379Z,13.81
2022-09-30T01:24:39.801Z,13.84
2022-09-30T01:26:09.386Z,13.86
2022-09-30T01:27:46.937Z,13.89
2022-09-30T01:29:12.649Z,13.81
2022-09-30T01:30:37.731Z,13.85
2022-09-30T01:31:43.913Z,13.42
2022-09-30T01:32:49.365Z,13.40
2022-09-30T01:34:20.757Z,13.76
2022-09-30T01:35:37.705Z,13.67
2022-09-30T01:37:03.098Z,13.66
2022-09-30T01:38:29.701Z,13.63
2022-09-30T01:40:05.877Z,13.68
2022-09-30T01:41:19.127Z,13.49
2022-09-30T01:42:45.265Z,13.58
2022-09-30T01:44:13.332Z,13.57
2022-09-30T01:45:27.031Z,13.48
2022-09-30T01:46:44.402Z,13.56
2022-09-30T01:48:14.553Z,13.67
2022-09-30T01:49:27.508Z,13.20
2022-09-30T01:51:05.967Z,13.51
2022-09-30T01:52:16.549Z,13.53
2022-09-30T01:53:21.565Z,13.09
2022-09-30T01:54:35.762Z,13.26
2022-09-30T01:55:49.954Z,13.27
2022-09-30T01:56:59.101Z,13.22
2022-09-30T01:58:09.323Z,13.29
2022-09-30T01:59:19.813Z,13.34
2022-09-30T02:00:22.687Z,13.11
2022-09-30T02:01:39.229Z,13.41
2022-09-30T02:02:53.237Z,13.29
2022-09-30T02:03:59.515Z,13.14
2022-09-30T02:05:37.890Z,13.23
2022-09-30T02:06:45.390Z,13.12
2022-09-30T02:07:57.246Z,13.18
2022-09-30T02:09:28.256Z,13.15
2022-09-30T02:10:39.333Z,13.18
2022-09-30T02:11:42.520Z,12.96
2022-09-30T02:12:53.779Z,13.15
2022-09-30T02:14:14.469Z,12.79
2022-09-30T02:15:24.936Z,12.96
2022-09-30T02:16:40.130Z,13.05
2022-09-30T02:17:50.193Z,13.03
2022-09-30T02:18:57.792Z,12.91
2022-09-30T02:20:05.982Z,12.88
2022-09-30T02:21:11.082Z,12.81
2022-09-30T02:22:26.012Z,12.94
2022-09-30T02:23:33.483Z,12.84
2022-09-30T02:24:39.313Z,12.68
2022-09-30T02:25:51.981Z,12.83
2022-09-30T02:26:57.385Z,12.73
2022-09-30T02:28:05.217Z,12.75
2022-09-30T02:29:13.349Z,12.53
2022-09-30T02:30:15.910Z,12.39
2022-09-30T02:31:21.739Z,12.60
2022-09-30T02:32:32.062Z,12.62
2022-09-30T02:33:43.693Z,12.69
2022-09-30T02:34:51.272Z,12.59
2022-09-30T02:36:00.104Z,12.53
2022-09-30T02:37:13.234Z,12.22
2022-09-30T02:38:26.848Z,12.52
2022-09-30T02:39:36.417Z,12.45
2022-09-30T02:40:48.094Z,12.44
2022-09-30T02:41:55.407Z,12.46
2022-09-30T02:42:58.040Z,12.30
2022-09-30T02:44:02.730Z,12.41
2022-09-30T02:45:11.490Z,12.56
2022-09-30T02:46:31.812Z,12.27
2022-09-30T02:47:48.903Z,12.59
2022-09-30T02:49:00.167Z,12.62
2022-09-30T02:50:11.458Z,12.55
2022-09-30T02:51:22.570Z,12.60
2022-09-30T02:52:36.056Z,12.52
2022-09-30T02:53:49.267Z,12.51
2022-09-30T02:55:06.370Z,12.60
2022-09-30T02:56:26.696Z,12.61
2022-09-30T02:58:10.244Z,12.64
2022-09-30T02:59:12.594Z,12.21
2022-09-30T03:00:14.778Z,12.14
2022-09-30T03:01:17.737Z,12.27
2022-09-30T03:02:21.355Z,12.29
2022-09-30T03:03:41.971Z,12.39
2022-09-30T03:04:46.663Z,12.23
2022-09-30T03:05:50.223Z,12.00
2022-09-30T03:06:52.534Z,11.88
2022-09-30T03:07:55.939Z,11.96
2022-09-30T03:08:58.504Z,11.89
2022-09-30T03:10:00.664Z,11.83
2022-09-30T03:11:04.529Z,11.95
2022-09-30T03:12:14.514Z,12.12
2022-09-30T03:13:39.565Z,12.18
2022-09-30T03:14:51.298Z,11.83
2022-09-30T03:15:59.451Z,11.79
2022-09-30T03:17:20.078Z,12.16
2022-09-30T03:18:45.648Z,12.11
2022-09-30T03:20:09.789Z,12.03
2022-09-30T03:21:22.089Z,11.66
2022-09-30T03:22:33.291Z,11.58
2022-09-30T03:23:41.294Z,11.54
2022-09-30T03:25:11.495Z,11.97
2022-09-30T03:26:19.659Z,11.89
2022-09-30T03:27:46.464Z,11.92
2022-09-30T03:29:01.021Z,11.95
2022-09-30T03:30:03.222Z,11.63
2022-09-30T03:31:30.498Z,11.83
2022-09-30T03:33:06.181Z,12.00
2022-09-30T03:34:26.877Z,12.05
2022-09-30T03:35:59.926Z,12.16
2022-09-30T03:37:08.671Z,12.10
2022-09-30T03:38:32.659Z,12.04
2022-09-30T03:39:55.093Z,12.07
2022-09-30T03:41:13.963Z,12.25
2022-09-30T03:42:26.945Z,12.11
2022-09-30T03:43:46.098Z,12.31
2022-09-30T03:44:51.101Z,11.97
2022-09-30T03:46:01.342Z,12.37
2022-09-30T03:47:09.074Z,12.46
2022-09-30T03:48:13.783Z,12.12
2022-09-30T03:49:24.960Z,12.46
2022-09-30T03:50:29.480Z,12.38
2022-09-30T03:51:35.619Z,12.44
2022-09-30T03:52:38.466Z,12.39
2022-09-30T03:53:42.821Z,12.40
2022-09-30T03:54:59.184Z,12.67
2022-09-30T03:56:01.507Z,12.42
2022-09-30T03:57:05.243Z,12.32
2022-09-30T03:58:09.018Z,12.61
2022-09-30T03:59:25.632Z,12.71
2022-09-30T04:00:27.886Z,12.42
2022-09-30T04:01:30.066Z,12.43
2022-09-30T04:02:32.597Z,12.40
2022-09-30T04:03:35.529Z,12.42
2022-09-30T04:04:37.673Z,12.40
2022-09-30T04:05:39.831Z,12.46
2022-09-30T04:06:41.971Z,12.40
2022-09-30T04:07:44.101Z,12.38
2022-09-30T04:08:46.339Z,12.48
2022-09-30T04:09:48.560Z,12.52
2022-09-30T04:10:50.762Z,12.59
2022-09-30T04:11:52.877Z,12.53
2022-09-30T04:12:55.065Z,12.53
2022-09-30T04:13:57.214Z,12.49
2022-09-30T04:14:59.308Z,12.36
2022-09-30T04:16:01.596Z,12.51
2022-09-30T04:17:05.112Z,12.66
2022-09-30T04:18:07.555Z,12.55
2022-09-30T04:19:09.704Z,12.57
2022-09-30T04:20:12.773Z,12.49
2022-09-30T04:21:15.505Z,12.66
2022-09-30T04:22:17.602Z,12.58
2022-09-30T04:23:19.690Z,12.63
2022-09-30T04:24:23.426Z,12.79
2022-09-30T04:25:27.897Z,12.80
2022-09-30T04:26:30.089Z,12.56
2022-09-30T04:27:32.269Z,12.61
2022-09-30T04:28:34.892Z,12.68
2022-09-30T04:29:37.003Z,12.70
2022-09-30T04:30:39.120Z,12.75
2022-09-30T04:31:42.041Z,12.73
2022-09-30T04:32:47.530Z,12.62
2022-09-30T04:33:50.584Z,12.64
2022-09-30T04:34:54.114Z,12.68
2022-09-30T04:35:57.238Z,12.71
2022-09-30T04:36:59.366Z,12.62
2022-09-30T04:38:02.584Z,12.55
2022-09-30T04:39:05.424Z,12.68
2022-09-30T04:40:09.835Z,12.72
2022-09-30T04:41:18.696Z,12.80
2022-09-30T04:42:20.765Z,12.62
2022-09-30T04:43:24.234Z,12.68
2022-09-30T04:44:26.341Z,12.57
2022-09-30T04:45:30.078Z,12.67
2022-09-30T04:46:36.688Z,12.81
2022-09-30T04:47:39.955Z,12.68
2022-09-30T04:48:45.701Z,12.61
2022-09-30T04:49:47.815Z,12.57
2022-09-30T04:50:50.841Z,12.57
2022-09-30T04:51:52.979Z,12.56
2022-09-30T04:52:56.894Z,12.52
2022-09-30T04:53:59.308Z,12.41
2022-09-30T04:55:01.440Z,12.40
2022-09-30T04:56:03.519Z,12.48
2022-09-30T04:57:06.110Z,12.26
2022-09-30T04:58:08.318Z,12.33
2022-09-30T04:59:10.586Z,12.38
2022-09-30T05:00:13.016Z,12.40
2022-09-30T05:01:17.729Z,12.52
2022-09-30T05:02:19.991Z,12.53
2022-09-30T05:03:22.160Z,12.44
2022-09-30T05:04:24.260Z,12.43
2022-09-30T05:05:26.435Z,12.38
2022-09-30T05:06:28.894Z,12.41
2022-09-30T05:07:32.124Z,12.56
2022-09-30T05:08:34.858Z,12.49
2022-09-30T05:09:37.035Z,12.49
2022-09-30T05:10:40.105Z,12.46
2022-09-30T05:11:42.337Z,12.44
2022-09-30T05:12:45.897Z,12.38
2022-09-30T05:13:49.255Z,12.54
2022-09-30T05:14:51.394Z,12.43
2022-09-30T05:15:53.646Z,12.45
2022-09-30T05:16:55.979Z,12.33
2022-09-30T05:17:58.615Z,12.40
2022-09-30T05:19:00.694Z,12.30
2022-09-30T05:20:03.338Z,12.37
2022-09-30T05:21:05.746Z,12.45
2022-09-30T05:22:07.851Z,12.37
2022-09-30T05:23:09.984Z,12.35
2022-09-30T05:24:12.871Z,12.26
2022-09-30T05:25:15.216Z,12.23
2022-09-30T05:26:17.390Z,12.24
2022-09-30T05:27:20.425Z,12.30
2022-09-30T05:28:22.817Z,12.13
2022-09-30T05:29:24.980Z,12.11
2022-09-30T05:30:27.340Z,12.14
2022-09-30T05:31:29.471Z,12.11
2022-09-30T05:32:31.734Z,12.13
2022-09-30T05:33:35.704Z,12.12
2022-09-30T05:34:39.017Z,12.07
2022-09-30T05:35:42.350Z,12.12
2022-09-30T05:36:44.480Z,12.00
2022-09-30T05:37:46.665Z,12.02
2022-09-30T05:38:52.691Z,12.28
2022-09-30T05:39:55.206Z,12.03
2022-09-30T05:40:57.372Z,11.96
2022-09-30T05:41:59.488Z,11.97
2022-09-30T05:43:01.574Z,11.97
2022-09-30T05:44:04.550Z,11.94
2022-09-30T05:45:07.130Z,11.97
2022-09-30T05:46:09.257Z,11.86
2022-09-30T05:47:11.626Z,11.83
2022-09-30T05:48:13.718Z,11.80
2022-09-30T05:49:15.932Z,11.78
2022-09-30T05:50:18.037Z,11.81
2022-09-30T05:51:20.242Z,11.70
2022-09-30T05:52:22.430Z,11.67
2022-09-30T05:53:34.831Z,11.96
2022-09-30T05:54:36.926Z,11.68
2022-09-30T05:55:39.395Z,11.69
2022-09-30T05:56:41.507Z,11.70
2022-09-30T05:57:46.156Z,11.83
2022-09-30T05:58:48.464Z,11.74
2022-09-30T05:59:50.958Z,11.74
2022-09-30T06:00:53.271Z,11.72
2022-09-30T06:01:55.541Z,11.71
2022-09-30T06:02:57.799Z,11.65
2022-09-30T06:04:00.037Z,11.59
2022-09-30T06:05:02.122Z,11.64
2022-09-30T06:06:05.769Z,11.75
2022-09-30T06:07:10.466Z,11.64
2022-09-30T06:08:16.152Z,11.79
2022-09-30T06:09:18.380Z,11.69
2022-09-30T06:10:20.543Z,11.80
2022-09-30T06:11:25.605Z,11.88
2022-09-30T06:12:28.741Z,11.92
2022-09-30T06:13:30.815Z,11.98
2022-09-30T06:14:32.938Z,12.03
2022-09-30T06:15:36.897Z,12.05
2022-09-30T06:16:39.731Z,12.25
2022-09-30T06:17:42.632Z,12.23
2022-09-30T06:18:45.487Z,12.36
2022-09-30T06:19:49.644Z,12.36
2022-09-30T06:20:52.313Z,12.52
2022-09-30T06:21:54.489Z,12.52
2022-09-30T06:22:59.349Z,12.78
2022-09-30T06:24:01.533Z,12.59
2022-09-30T06:25:05.449Z,12.74
2022-09-30T06:26:11.620Z,13.05
2022-09-30T06:27:14.082Z,12.98
2022-09-30T06:28:16.698Z,13.11
2022-09-30T06:29:19.654Z,13.26
2022-09-30T06:30:22.065Z,13.49
2022-09-30T06:31:24.219Z,13.38
2022-09-30T06:32:26.546Z,13.66
2022-09-30T06:33:29.062Z,13.68
2022-09-30T06:34:31.121Z,14.01
2022-09-30T06:35:33.190Z,14.14
2022-09-30T06:36:35.298Z,14.34
2022-09-30T06:37:38.705Z,14.72
2022-09-30T06:38:40.906Z,15.11
2022-09-30T06:39:43.079Z,15.45
2022-09-30T06:40:49.541Z,15.49
2022-09-30T06:41:51.651Z,15.63
2022-09-30T06:43:01.141Z,15.96
2022-09-30T06:44:08.884Z,16.06
2022-09-30T06:45:20.376Z,16.25
2022-09-30T06:46:30.650Z,16.27
2022-09-30T06:47:33.338Z,16.19
2022-09-30T06:48:38.647Z,16.79
2022-09-30T06:49:49.121Z,16.83
2022-09-30T06:51:01.748Z,17.25
2022-09-30T06:52:04.390Z,17.47
2022-09-30T06:53:08.336Z,17.37
2022-09-30T06:54:11.329Z,17.62
2022-09-30T06:55:13.509Z,18.19
2022-09-30T06:56:18.261Z,18.63
2022-09-30T06:57:22.649Z,18.09
2022-09-30T06:58:25.601Z,18.75
2022-09-30T06:59:27.824Z,19.11
2022-09-30T07:00:29.914Z,19.51
2022-09-30T07:01:32.002Z,19.44
2022-09-30T07:02:34.567Z,20.05
2022-09-30T07:03:37.029Z,19.74
2022-09-30T07:04:39.128Z,19.98
2022-09-30T07:05:41.217Z,20.54
2022-09-30T07:06:44.214Z,20.64
2022-09-30T07:07:46.849Z,20.51
2022-09-30T07:08:48.872Z,20.09
2022-09-30T07:09:51.290Z,20.43
2022-09-30T07:10:53.360Z,20.61
2022-09-30T07:11:55.390Z,20.94
2022-09-30T07:12:57.416Z,20.81
2022-09-30T07:13:59.516Z,20.35
2022-09-30T07:15:01.833Z,20.90
2022-09-30T07:16:03.912Z,20.73
2022-09-30T07:17:06.569Z,21.34
2022-09-30T07:18:08.654Z,21.16
2022-09-30T07:19:11.485Z,21.18
2022-09-30T07:20:14.794Z,21.49
2022-09-30T07:21:17.601Z,21.68
2022-09-30T07:22:34.425Z,20.58
2022-09-30T07:23:36.706Z,21.56
2022-09-30T07:24:38.761Z,21.83
2022-09-30T07:25:48.407Z,21.32
2022-09-30T07:26:50.562Z,22.07
2022-09-30T07:27:54.857Z,22.54
2022-09-30T07:28:57.255Z,22.64
2022-09-30T07:30:25.910Z,23.40
2022-09-30T07:31:32.958Z,23.91
2022-09-30T07:32:37.266Z,22.93
2022-09-30T07:33:40.074Z,23.56
2022-09-30T07:34:43.112Z,23.48
2022-09-30T07:35:55.067Z,23.12
2022-09-30T07:36:57.205Z,23.39
2022-09-30T07:38:00.654Z,24.09
2022-09-30T07:39:06.431Z,24.55
2022-09-30T07:40:09.570Z,25.00
2022-09-30T07:41:15.184Z,24.50
2022-09-30T07:42:22.959Z,25.39
2022-09-30T07:43:31.294Z,25.87
2022-09-30T07:44:34.055Z,25.81
2022-09-30T07:45:37.117Z,26.53
2022-09-30T07:46:40.363Z,24.58
2022-09-30T07:47:42.560Z,24.34
2022-09-30T07:48:52.334Z,25.11
2022-09-30T07:49:54.507Z,25.31
2022-09-30T07:50:56.631Z,25.77
2022-09-30T07:51:59.668Z,25.64
2022-09-30T07:53:01.820Z,25.99
2022-09-30T07:54:11.273Z,26.15
2022-09-30T07:55:13.395Z,25.12
2022-09-30T07:56:15.731Z,24.14
2022-09-30T07:57:17.946Z,24.28
2022-09-30T07:58:20.128Z,24.04
2022-09-30T07:59:22.559Z,24.79
2022-09-30T08:00:41.701Z,24.70
2022-09-30T08:01:45.413Z,25.16
2022-09-30T08:02:47.535Z,24.89
2022-09-30T08:03:53.698Z,24.70
2022-09-30T08:04:56.117Z,25.02
2022-09-30T08:06:05.123Z,25.81
2022-09-30T08:07:07.317Z,25.55
2022-09-30T08:08:09.413Z,25.40
2022-09-30T08:09:13.075Z,25.50
2022-09-30T08:10:15.602Z,25.65
2022-09-30T08:11:18.029Z,26.50
2022-09-30T08:12:20.150Z,26.33
2022-09-30T08:13:22.342Z,26.06
2022-09-30T08:14:26.897Z,25.44
2022-09-30T08:15:29.073Z,25.84
2022-09-30T08:16:31.716Z,26.01
2022-09-30T08:17:33.849Z,25.49
2022-09-30T08:18:36.511Z,25.71
2022-09-30T08:19:41.366Z,25.11
2022-09-30T08:20:43.534Z,25.39
2022-09-30T08:21:46.780Z,25.53
2022-09-30T08:22:52.746Z,25.83
2022-09-30T08:23:54.931Z,24.73
2022-09-30T08:24:57.049Z,25.05
2022-09-30T08:26:09.860Z,24.57
2022-09-30T08:27:12.001Z,24.05
2022-09-30T08:28:14.519Z,23.66
2022-09-30T08:29:20.503Z,24.19
2022-09-30T08:30:27.223Z,23.87
2022-09-30T08:31:29.867Z,23.57
2022-09-30T08:32:32.512Z,24.54
2022-09-30T08:33:35.523Z,25.18
2022-09-30T08:34:37.704Z,24.40
2022-09-30T08:35:39.839Z,25.25
2022-09-30T08:36:41.961Z,25.17
2022-09-30T08:37:44.169Z,25.54
2022-09-30T08:38:46.401Z,26.10
2022-09-30T08:39:48.641Z,26.39
2022-09-30T08:41:15.499Z,26.49
2022-09-30T08:42:45.747Z,25.27
2022-09-30T08:44:15.557Z,25.72
2022-09-30T08:45:36.329Z,26.58
2022-09-30T08:46:57.425Z,27.05
2022-09-30T08:48:19.375Z,26.67
2022-09-30T08:49:49.719Z,26.84
2022-09-30T08:51:27.621Z,27.29
2022-09-30T08:52:48.341Z,27.00
2022-09-30T08:53:51.551Z,24.99
2022-09-30T08:54:55.743Z,24.93
2022-09-30T08:56:02.443Z,25.93
2022-09-30T08:57:05.822Z,25.66
2022-09-30T08:58:22.532Z,26.47
2022-09-30T08:59:26.515Z,27.04
2022-09-30T09:00:28.712Z,27.25
2022-09-30T09:01:34.108Z,26.78
2022-09-30T09:02:50.588Z,27.34
2022-09-30T09:03:54.095Z,27.49
2022-09-30T09:05:05.808Z,28.45
2022-09-30T09:06:29.231Z,28.04
2022-09-30T09:07:43.432Z,27.68
2022-09-30T09:08:56.132Z,28.10
2022-09-30T09:10:30.579Z,28.69
2022-09-30T09:11:51.403Z,28.94
2022-09-30T09:13:09.456Z,28.43
2022-09-30T09:14:49.912Z,29.00
2022-09-30T09:16:10.336Z,27.99
2022-09-30T09:17:34.402Z,28.32
2022-09-30T09:18:46.530Z,27.19
2022-09-30T09:20:11.679Z,27.80
2022-09-30T09:21:36.468Z,26.62
2022-09-30T09:22:39.217Z,26.13
2022-09-30T09:23:41.820Z,26.20
2022-09-30T09:24:47.341Z,27.14
2022-09-30T09:25:55.586Z,27.31
2022-09-30T09:27:01.247Z,27.58
2022-09-30T09:28:26.171Z,28.46
2022-09-30T09:29:55.966Z,29.43
2022-09-30T09:31:00.183Z,27.59
2022-09-30T09:32:05.070Z,26.16
2022-09-30T09:33:21.449Z,25.31
2022-09-30T09:34:25.551Z,25.40
2022-09-30T09:35:53.317Z,25.83
2022-09-30T09:36:55.398Z,25.16
2022-09-30T09:38:36.685Z,25.50
2022-09-30T09:40:01.592Z,26.54
2022-09-30T09:41:57.003Z,27.21
2022-09-30T09:43:07.629Z,27.00
2022-09-30T09:44:28.831Z,27.19
2022-09-30T09:45:40.210Z,27.95
2022-09-30T09:46:59.310Z,26.55
2022-09-30T09:48:01.568Z,25.84
2022-09-30T09:49:24.114Z,27.79
2022-09-30T09:50:32.574Z,27.02
2022-09-30T09:51:40.034Z,26.64
2022-09-30T09:53:05.041Z,27.98
2022-09-30T09:54:12.249Z,28.91
2022-09-30T09:55:18.957Z,28.37
2022-09-30T09:56:23.233Z,28.05
2022-09-30T09:57:32.070Z,28.77
2022-09-30T09:58:34.195Z,29.24
2022-09-30T09:59:39.300Z,28.45
2022-09-30T10:00:47.913Z,29.07
2022-09-30T10:01:52.741Z,28.08
2022-09-30T10:03:08.444Z,28.64
2022-09-30T10:04:33.190Z,28.69
2022-09-30T10:05:42.375Z,29.73
2022-09-30T10:06:53.396Z,29.53
2022-09-30T10:08:14.892Z,29.08
2022-09-30T10:09:25.918Z,28.25
2022-09-30T10:10:29.947Z,28.60
2022-09-30T10:11:32.028Z,29.66
2022-09-30T10:12:34.847Z,29.69
2022-09-30T10:13:46.647Z,29.76
2022-09-30T10:14:53.010Z,28.70
2022-09-30T10:15:57.849Z,28.37
2022-09-30T10:17:05.533Z,29.28
2022-09-30T10:18:17.972Z,29.50
2022-09-30T10:19:27.275Z,28.75
2022-09-30T10:20:36.399Z,28.63
2022-09-30T10:21:38.607Z,28.03
2022-09-30T10:22:40.951Z,27.71
2022-09-30T10:23:43.054Z,27.61
2022-09-30T10:24:45.203Z,27.50
2022-09-30T10:26:16.635Z,26.15
2022-09-30T10:27:34.934Z,25.89
2022-09-30T10:28:47.117Z,25.20
2022-09-30T10:29:49.335Z,24.52
2022-09-30T10:30:54.495Z,25.30
2022-09-30T10:31:59.897Z,24.76
2022-09-30T10:33:06.597Z,25.22
2022-09-30T10:34:21.930Z,25.89
2022-09-30T10:35:24.322Z,25.13
2022-09-30T10:36:33.312Z,25.77
2022-09-30T10:37:35.493Z,25.89
2022-09-30T10:38:58.896Z,25.77
2022-09-30T10:40:08.980Z,25.17
2022-09-30T10:41:11.338Z,25.13
2022-09-30T10:42:26.530Z,25.55
2022-09-30T10:43:34.649Z,24.64
2022-09-30T10:44:49.568Z,24.84
2022-09-30T10:46:20.885Z,24.19
2022-09-30T10:47:19.460Z,24.28
2022-09-30T10:48:24.496Z,24.78
2022-09-30T10:49:51.087Z,24.95
2022-09-30T10:50:55.571Z,24.65
2022-09-30T10:51:59.920Z,25.15
2022-09-30T10:53:15.651Z,25.81
2022-09-30T10:54:56.678Z,26.66
2022-09-30T10:56:00.962Z,25.78
2022-09-30T10:57:03.983Z,25.83
2022-09-30T10:58:23.475Z,26.58
2022-09-30T10:59:35.113Z,27.14
2022-09-30T11:00:37.591Z,26.99
2022-09-30T11:01:52.662Z,27.39
2022-09-30T11:03:13.241Z,26.91
2022-09-30T11:04:31.748Z,26.43
2022-09-30T11:05:42.664Z,26.43
2022-09-30T11:06:47.186Z,26.47
2022-09-30T11:08:07.591Z,26.43
2022-09-30T11:09:15.767Z,25.52
2022-09-30T11:10:41.865Z,26.11
2022-09-30T11:11:53.344Z,26.50
2022-09-30T11:13:27.689Z,25.96
2022-09-30T11:14:38.584Z,26.62
2022-09-30T11:15:52.869Z,27.03
2022-09-30T11:17:18.082Z,28.37
2022-09-30T11:18:34.670Z,28.41
2022-09-30T11:19:48.552Z,28.91
2022-09-30T11:20:58.014Z,28.14
2022-09-30T11:22:13.506Z,26.23
2022-09-30T11:23:24.334Z,26.41
2022-09-30T11:24:40.802Z,27.38
2022-09-30T11:26:02.896Z,28.02
2022-09-30T11:27:20.110Z,26.28
2022-09-30T11:28:25.290Z,26.65
2022-09-30T11:29:46.430Z,27.20
2022-09-30T11:31:06.947Z,26.63
2022-09-30T11:32:32.754Z,26.56
2022-09-30T11:33:50.030Z,26.48
2022-09-30T11:35:01.522Z,25.28
2022-09-30T11:36:29.338Z,25.07
2022-09-30T11:38:10.358Z,24.50
2022-09-30T11:39:34.196Z,25.07
2022-09-30T11:41:25.262Z,25.27
2022-09-30T11:42:38.735Z,24.21
2022-09-30T11:43:59.421Z,24.65
2022-09-30T11:45:23.454Z,24.12
2022-09-30T11:46:44.511Z,23.99
2022-09-30T11:48:05.573Z,24.41
2022-09-30T11:49:19.773Z,25.07
2022-09-30T11:50:30.292Z,26.43
2022-09-30T11:51:32.341Z,24.69
2022-09-30T11:52:38.888Z,24.74
2022-09-30T11:53:59.018Z,25.08
2022-09-30T11:55:11.817Z,24.38
2022-09-30T11:56:42.161Z,24.12
2022-09-30T11:58:11.965Z,23.93
2022-09-30T11:59:26.626Z,23.96
2022-09-30T12:00:31.579Z,24.72
2022-09-30T12:01:41.391Z,23.98
2022-09-30T12:02:50.859Z,23.85
2022-09-30T12:04:17.270Z,23.74
2022-09-30T12:05:46.031Z,23.39
2022-09-30T12:06:58.135Z,23.80
2022-09-30T12:08:22.066Z,23.82
2022-09-30T12:09:30.531Z,23.39
2022-09-30T12:11:10.814Z,23.12
2022-09-30T12:12:17.197Z,22.44
2022-09-30T12:13:25.817Z,22.25
2022-09-30T12:14:40.854Z,22.50
2022-09-30T12:15:45.371Z,21.88
2022-09-30T12:16:49.019Z,22.06
2022-09-30T12:17:59.322Z,22.26
2022-09-30T12:19:26.589Z,22.49
2022-09-30T12:20:55.300Z,23.26
2022-09-30T12:22:07.608Z,23.91
2022-09-30T12:23:21.054Z,24.41
2022-09-30T12:24:36.181Z,25.02
2022-09-30T12:25:46.039Z,24.94
2022-09-30T12:26:48.207Z,25.23
2022-09-30T12:28:31.933Z,24.92
2022-09-30T12:30:00.708Z,24.24
2022-09-30T12:31:19.301Z,25.03
2022-09-30T12:32:30.166Z,25.65
2022-09-30T12:33:41.004Z,26.05
2022-09-30T12:35:23.908Z,26.43
2022-09-30T12:36:44.521Z,26.07
2022-09-30T12:37:57.687Z,24.90
2022-09-30T12:39:22.248Z,24.97
2022-09-30T12:41:02.538Z,25.78
2022-09-30T12:42:16.645Z,26.32
2022-09-30T12:43:46.809Z,26.04
2022-09-30T12:45:07.670Z,25.97
2022-09-30T12:46:15.870Z,25.60
2022-09-30T12:47:27.301Z,26.58
2022-09-30T12:48:40.513Z,26.24
2022-09-30T12:49:43.972Z,25.52
2022-09-30T12:50:52.834Z,25.43
2022-09-30T12:51:58.556Z,24.95
2022-09-30T12:53:17.735Z,24.52
2022-09-30T12:54:25.419Z,24.89
2022-09-30T12:55:32.618Z,25.76
2022-09-30T12:56:35.343Z,26.01
2022-09-30T12:57:42.220Z,26.68
2022-09-30T12:58:49.529Z,26.19
2022-09-30T12:59:55.649Z,25.96
2022-09-30T13:01:06.207Z,25.93
2022-09-30T13:02:22.764Z,26.01
2022-09-30T13:03:25.484Z,26.16
2022-09-30T13:04:34.426Z,25.83
2022-09-30T13:05:38.064Z,25.44
2022-09-30T13:06:46.106Z,25.88
2022-09-30T13:08:03.613Z,26.03
2022-09-30T13:09:19.504Z,23.93
2022-09-30T13:10:28.728Z,24.20
2022-09-30T13:11:45.306Z,23.56
2022-09-30T13:12:48.074Z,23.97
2022-09-30T13:14:12.774Z,24.58
2022-09-30T13:15:44.651Z,24.19
2022-09-30T13:16:59.040Z,24.75
2022-09-30T13:18:19.296Z,24.69
2022-09-30T13:19:22.191Z,23.91
2022-09-30T13:20:56.644Z,24.06
2022-09-30T13:22:29.780Z,23.74
2022-09-30T13:23:40.075Z,23.14
2022-09-30T13:25:00.501Z,23.27
2022-09-30T13:26:03.960Z,22.73
2022-09-30T13:27:15.295Z,22.80
2022-09-30T13:28:24.462Z,22.81
2022-09-30T13:29:32.960Z,22.32
2022-09-30T13:30:36.336Z,22.65
2022-09-30T13:31:50.462Z,23.10
2022-09-30T13:32:57.404Z,22.89
2022-09-30T13:34:02.622Z,23.32
2022-09-30T13:35:32.760Z,23.26
2022-09-30T13:36:44.294Z,23.02
2022-09-30T13:38:15.220Z,23.75
2022-09-30T13:39:23.130Z,24.29
2022-09-30T13:40:49.732Z,24.27
2022-09-30T13:42:01.218Z,23.54
2022-09-30T13:43:04.531Z,23.71
2022-09-30T13:44:17.345Z,23.37
2022-09-30T13:45:31.896Z,22.56
2022-09-30T13:46:43.329Z,22.57
2022-09-30T13:48:07.337Z,22.97
2022-09-30T13:49:19.347Z,22.07
2022-09-30T13:50:36.881Z,22.09
2022-09-30T13:51:40.334Z,21.84
2022-09-30T13:52:45.579Z,22.01
2022-09-30T13:53:55.291Z,22.24
2022-09-30T13:55:03.152Z,22.32
2022-09-30T13:56:09.397Z,22.51
2022-09-30T13:57:19.717Z,22.03
2022-09-30T13:59:00.656Z,21.85
2022-09-30T14:00:11.252Z,22.97
2022-09-30T14:01:26.957Z,23.17
2022-09-30T14:02:50.470Z,23.30
2022-09-30T14:04:10.894Z,22.64
2022-09-30T14:05:25.346Z,22.76
2022-09-30T14:06:44.704Z,23.09
2022-09-30T14:08:01.083Z,22.45
2022-09-30T14:09:09.233Z,22.01
2022-09-30T14:10:28.238Z,22.06
2022-09-30T14:12:02.796Z,22.74
2022-09-30T14:13:16.961Z,22.92
2022-09-30T14:14:47.088Z,22.77
2022-09-30T14:16:10.573Z,22.78
2022-09-30T14:17:33.959Z,22.87
2022-09-30T14:18:50.619Z,23.15
2022-09-30T14:20:01.669Z,23.17
2022-09-30T14:21:34.860Z,23.16
2022-09-30T14:22:37.232Z,22.41
2022-09-30T14:23:39.464Z,22.22
2022-09-30T14:24:41.924Z,22.05
2022-09-30T14:25:50.287Z,22.21
2022-09-30T14:27:16.981Z,22.10
2022-09-30T14:28:31.641Z,21.98
2022-09-30T14:30:11.403Z,21.80
2022-09-30T14:31:15.529Z,21.46
2022-09-30T14:32:21.360Z,21.51
2022-09-30T14:33:28.113Z,21.36
2022-09-30T14:34:33.907Z,21.28
2022-09-30T14:35:38.023Z,21.35
2022-09-30T14:36:41.094Z,20.82
2022-09-30T14:37:46.795Z,21.63
2022-09-30T14:38:58.255Z,21.80
2022-09-30T14:40:01.342Z,21.82
2022-09-30T14:41:09.107Z,22.05
2022-09-30T14:42:18.682Z,22.68
2022-09-30T14:43:40.308Z,22.93
2022-09-30T14:44:44.729Z,22.53
2022-09-30T14:45:52.823Z,22.35
2022-09-30T14:47:01.220Z,21.81
2022-09-30T14:48:11.717Z,22.51
2022-09-30T14:49:18.963Z,22.18
2022-09-30T14:50:34.692Z,22.56
2022-09-30T14:51:48.478Z,22.81
2022-09-30T14:52:55.792Z,22.81
2022-09-30T14:54:02.524Z,22.97
2022-09-30T14:55:28.052Z,23.18
2022-09-30T14:56:34.038Z,22.66
2022-09-30T14:57:36.601Z,21.46
2022-09-30T14:58:44.847Z,21.58